sensor_id;sensor_type;location;lat;lon;timestamp;P1;durP1;ratioP1;P2;durP2;ratioP2
47349;SDS011;33088;51.982;5.872;2023-04-21T00:00:03;54.47;;;30.38;;
47349;SDS011;33088;51.982;5.872;2023-04-21T00:02:33;45.90;;;29.92;;
47349;SDS011;33088;51.982;5.872;2023-04-21T00:05:03;50.33;;;32.67;;
47349;SDS011;33088;51.982;5.872;2023-04-21T00:07:31;55.70;;;33.28;;
47349;SDS011;33088;51.982;5.872;2023-04-21T00:09:58;60.30;;;33.15;;
47349;SDS011;33088;51.982;5.872;2023-04-21T00:12:23;56.17;;;33.53;;
47349;SDS011;33088;51.982;5.872;2023-04-21T00:14:49;58.03;;;34.22;;
47349;SDS011;33088;51.982;5.872;2023-04-21T00:17:15;63.47;;;36.50;;
47349;SDS011;33088;51.982;5.872;2023-04-21T00:19:41;67.28;;;36.20;;
47349;SDS011;33088;51.982;5.872;2023-04-21T00:22:07;62.95;;;37.15;;
47349;SDS011;33088;51.982;5.872;2023-04-21T00:24:36;62.50;;;36.67;;
47349;SDS011;33088;51.982;5.872;2023-04-21T00:27:02;71.38;;;38.05;;
47349;SDS011;33088;51.982;5.872;2023-04-21T00:29:27;70.28;;;37.05;;
47349;SDS011;33088;51.982;5.872;2023-04-21T00:31:55;71.35;;;38.30;;
47349;SDS011;33088;51.982;5.872;2023-04-21T00:34:20;65.10;;;36.28;;
47349;SDS011;33088;51.982;5.872;2023-04-21T00:36:46;76.90;;;39.25;;
47349;SDS011;33088;51.982;5.872;2023-04-21T00:39:12;63.17;;;36.33;;
47349;SDS011;33088;51.982;5.872;2023-04-21T00:41:38;73.57;;;38.17;;
47349;SDS011;33088;51.982;5.872;2023-04-21T00:44:05;77.35;;;38.08;;
47349;SDS011;33088;51.982;5.872;2023-04-21T00:46:32;83.53;;;41.28;;
47349;SDS011;33088;51.982;5.872;2023-04-21T00:48:59;78.43;;;42.63;;
47349;SDS011;33088;51.982;5.872;2023-04-21T00:51:27;76.93;;;41.67;;
47349;SDS011;33088;51.982;5.872;2023-04-21T00:53:54;79.15;;;39.75;;
47349;SDS011;33088;51.982;5.872;2023-04-21T00:56:20;78.60;;;41.33;;
47349;SDS011;33088;51.982;5.872;2023-04-21T00:58:46;82.30;;;41.28;;
47349;SDS011;33088;51.982;5.872;2023-04-21T01:01:13;86.50;;;41.72;;
47349;SDS011;33088;51.982;5.872;2023-04-21T01:03:43;65.85;;;38.45;;
47349;SDS011;33088;51.982;5.872;2023-04-21T01:06:09;89.18;;;41.88;;
47349;SDS011;33088;51.982;5.872;2023-04-21T01:08:36;77.15;;;41.35;;
47349;SDS011;33088;51.982;5.872;2023-04-21T01:11:12;64.93;;;35.97;;
47349;SDS011;33088;51.982;5.872;2023-04-21T01:13:39;77.10;;;41.50;;
47349;SDS011;33088;51.982;5.872;2023-04-21T01:16:05;70.13;;;38.40;;
47349;SDS011;33088;51.982;5.872;2023-04-21T01:18:32;74.63;;;39.85;;
47349;SDS011;33088;51.982;5.872;2023-04-21T01:20:58;90.38;;;44.05;;
47349;SDS011;33088;51.982;5.872;2023-04-21T01:23:25;87.38;;;41.92;;
47349;SDS011;33088;51.982;5.872;2023-04-21T01:25:51;79.07;;;40.40;;
47349;SDS011;33088;51.982;5.872;2023-04-21T01:28:21;84.15;;;40.90;;
47349;SDS011;33088;51.982;5.872;2023-04-21T01:30:47;69.68;;;40.78;;
47349;SDS011;33088;51.982;5.872;2023-04-21T01:33:13;90.18;;;42.90;;
47349;SDS011;33088;51.982;5.872;2023-04-21T01:35:39;86.72;;;43.78;;
47349;SDS011;33088;51.982;5.872;2023-04-21T01:38:04;74.72;;;40.72;;
47349;SDS011;33088;51.982;5.872;2023-04-21T01:40:30;86.70;;;43.42;;
47349;SDS011;33088;51.982;5.872;2023-04-21T01:42:56;83.05;;;42.95;;
47349;SDS011;33088;51.982;5.872;2023-04-21T01:45:22;79.85;;;40.15;;
47349;SDS011;33088;51.982;5.872;2023-04-21T01:47:48;82.05;;;43.53;;
47349;SDS011;33088;51.982;5.872;2023-04-21T01:50:14;83.40;;;44.53;;
47349;SDS011;33088;51.982;5.872;2023-04-21T01:52:41;72.35;;;40.17;;
47349;SDS011;33088;51.982;5.872;2023-04-21T01:55:06;82.93;;;45.33;;
47349;SDS011;33088;51.982;5.872;2023-04-21T01:57:32;80.30;;;45.25;;
47349;SDS011;33088;51.982;5.872;2023-04-21T01:59:58;70.35;;;39.85;;
47349;SDS011;33088;51.982;5.872;2023-04-21T02:02:25;86.53;;;44.53;;
47349;SDS011;33088;51.982;5.872;2023-04-21T02:04:51;84.97;;;44.75;;
47349;SDS011;33088;51.982;5.872;2023-04-21T02:07:17;78.22;;;41.80;;
47349;SDS011;33088;51.982;5.872;2023-04-21T02:09:42;93.75;;;45.70;;
47349;SDS011;33088;51.982;5.872;2023-04-21T02:12:08;88.32;;;44.17;;
47349;SDS011;33088;51.982;5.872;2023-04-21T02:14:35;92.82;;;44.97;;
47349;SDS011;33088;51.982;5.872;2023-04-21T02:17:01;95.22;;;45.80;;
47349;SDS011;33088;51.982;5.872;2023-04-21T02:19:28;77.72;;;42.35;;
47349;SDS011;33088;51.982;5.872;2023-04-21T02:21:54;88.13;;;43.05;;
47349;SDS011;33088;51.982;5.872;2023-04-21T02:24:20;86.32;;;43.85;;
47349;SDS011;33088;51.982;5.872;2023-04-21T02:26:46;74.28;;;40.70;;
47349;SDS011;33088;51.982;5.872;2023-04-21T02:29:12;80.13;;;42.45;;
47349;SDS011;33088;51.982;5.872;2023-04-21T02:31:37;61.15;;;36.95;;
47349;SDS011;33088;51.982;5.872;2023-04-21T02:34:03;76.05;;;41.28;;
47349;SDS011;33088;51.982;5.872;2023-04-21T02:36:29;88.45;;;44.38;;
47349;SDS011;33088;51.982;5.872;2023-04-21T02:38:56;74.13;;;42.33;;
47349;SDS011;33088;51.982;5.872;2023-04-21T02:41:22;78.68;;;42.20;;
47349;SDS011;33088;51.982;5.872;2023-04-21T02:43:48;71.75;;;42.65;;
47349;SDS011;33088;51.982;5.872;2023-04-21T02:46:14;86.93;;;44.10;;
47349;SDS011;33088;51.982;5.872;2023-04-21T02:48:39;85.00;;;45.10;;
47349;SDS011;33088;51.982;5.872;2023-04-21T02:51:10;73.90;;;41.85;;
47349;SDS011;33088;51.982;5.872;2023-04-21T02:53:37;96.73;;;47.03;;
47349;SDS011;33088;51.982;5.872;2023-04-21T02:56:02;80.90;;;43.00;;
47349;SDS011;33088;51.982;5.872;2023-04-21T02:58:29;87.65;;;46.15;;
47349;SDS011;33088;51.982;5.872;2023-04-21T03:00:55;89.45;;;45.95;;
47349;SDS011;33088;51.982;5.872;2023-04-21T03:03:21;88.10;;;45.75;;
47349;SDS011;33088;51.982;5.872;2023-04-21T03:05:47;90.85;;;44.63;;
47349;SDS011;33088;51.982;5.872;2023-04-21T03:08:13;83.72;;;45.13;;
47349;SDS011;33088;51.982;5.872;2023-04-21T03:10:39;72.50;;;42.92;;
47349;SDS011;33088;51.982;5.872;2023-04-21T03:13:05;82.47;;;42.75;;
47349;SDS011;33088;51.982;5.872;2023-04-21T03:15:31;77.47;;;44.65;;
47349;SDS011;33088;51.982;5.872;2023-04-21T03:17:58;81.40;;;42.60;;
47349;SDS011;33088;51.982;5.872;2023-04-21T03:20:27;77.90;;;45.20;;
47349;SDS011;33088;51.982;5.872;2023-04-21T03:22:53;87.15;;;45.58;;
47349;SDS011;33088;51.982;5.872;2023-04-21T03:25:18;107.72;;;49.83;;
47349;SDS011;33088;51.982;5.872;2023-04-21T03:27:44;108.32;;;49.67;;
47349;SDS011;33088;51.982;5.872;2023-04-21T03:30:10;96.70;;;49.50;;
47349;SDS011;33088;51.982;5.872;2023-04-21T03:32:36;80.13;;;45.33;;
47349;SDS011;33088;51.982;5.872;2023-04-21T03:35:05;98.28;;;50.40;;
47349;SDS011;33088;51.982;5.872;2023-04-21T03:37:30;84.90;;;47.53;;
47349;SDS011;33088;51.982;5.872;2023-04-21T03:39:58;97.93;;;50.15;;
47349;SDS011;33088;51.982;5.872;2023-04-21T03:42:24;106.68;;;52.03;;
47349;SDS011;33088;51.982;5.872;2023-04-21T03:44:50;92.10;;;48.88;;
47349;SDS011;33088;51.982;5.872;2023-04-21T03:47:15;87.93;;;47.28;;
47349;SDS011;33088;51.982;5.872;2023-04-21T03:49:41;100.43;;;50.55;;
47349;SDS011;33088;51.982;5.872;2023-04-21T03:52:07;98.65;;;50.13;;
47349;SDS011;33088;51.982;5.872;2023-04-21T03:54:32;90.70;;;51.00;;
47349;SDS011;33088;51.982;5.872;2023-04-21T03:56:58;96.57;;;51.28;;
47349;SDS011;33088;51.982;5.872;2023-04-21T03:59:24;106.72;;;54.75;;
47349;SDS011;33088;51.982;5.872;2023-04-21T04:01:50;101.50;;;53.72;;
47349;SDS011;33088;51.982;5.872;2023-04-21T04:04:15;79.38;;;47.85;;
47349;SDS011;33088;51.982;5.872;2023-04-21T04:06:44;94.47;;;52.47;;
47349;SDS011;33088;51.982;5.872;2023-04-21T04:09:10;78.28;;;46.70;;
47349;SDS011;33088;51.982;5.872;2023-04-21T04:11:35;92.40;;;51.38;;
47349;SDS011;33088;51.982;5.872;2023-04-21T04:14:01;93.82;;;52.30;;
47349;SDS011;33088;51.982;5.872;2023-04-21T04:16:26;93.82;;;53.05;;
47349;SDS011;33088;51.982;5.872;2023-04-21T04:18:52;89.18;;;49.97;;
47349;SDS011;33088;51.982;5.872;2023-04-21T04:21:18;95.50;;;53.10;;
47349;SDS011;33088;51.982;5.872;2023-04-21T04:23:44;88.35;;;50.67;;
47349;SDS011;33088;51.982;5.872;2023-04-21T04:26:10;91.25;;;50.88;;
47349;SDS011;33088;51.982;5.872;2023-04-21T04:28:36;81.38;;;48.50;;
47349;SDS011;33088;51.982;5.872;2023-04-21T04:31:02;91.70;;;51.75;;
47349;SDS011;33088;51.982;5.872;2023-04-21T04:33:28;76.07;;;47.25;;
47349;SDS011;33088;51.982;5.872;2023-04-21T04:35:53;87.63;;;49.70;;
47349;SDS011;33088;51.982;5.872;2023-04-21T04:38:19;88.72;;;52.42;;
47349;SDS011;33088;51.982;5.872;2023-04-21T04:40:51;70.97;;;47.10;;
47349;SDS011;33088;51.982;5.872;2023-04-21T04:43:18;89.82;;;52.60;;
47349;SDS011;33088;51.982;5.872;2023-04-21T04:45:43;86.38;;;49.78;;
47349;SDS011;33088;51.982;5.872;2023-04-21T04:48:09;77.50;;;49.28;;
47349;SDS011;33088;51.982;5.872;2023-04-21T04:50:35;83.63;;;50.20;;
47349;SDS011;33088;51.982;5.872;2023-04-21T04:53:00;77.07;;;48.20;;
47349;SDS011;33088;51.982;5.872;2023-04-21T04:55:26;88.43;;;50.40;;
47349;SDS011;33088;51.982;5.872;2023-04-21T04:57:52;84.25;;;50.92;;
47349;SDS011;33088;51.982;5.872;2023-04-21T05:00:17;93.68;;;51.33;;
47349;SDS011;33088;51.982;5.872;2023-04-21T05:02:43;79.47;;;49.72;;
47349;SDS011;33088;51.982;5.872;2023-04-21T05:05:09;93.53;;;52.97;;
47349;SDS011;33088;51.982;5.872;2023-04-21T05:07:35;82.15;;;49.95;;
47349;SDS011;33088;51.982;5.872;2023-04-21T05:10:01;91.35;;;53.55;;
47349;SDS011;33088;51.982;5.872;2023-04-21T05:12:28;86.60;;;50.47;;
47349;SDS011;33088;51.982;5.872;2023-04-21T05:14:56;80.25;;;50.60;;
47349;SDS011;33088;51.982;5.872;2023-04-21T05:17:22;78.80;;;48.97;;
47349;SDS011;33088;51.982;5.872;2023-04-21T05:19:48;78.03;;;48.10;;
47349;SDS011;33088;51.982;5.872;2023-04-21T05:22:13;68.60;;;45.85;;
47349;SDS011;33088;51.982;5.872;2023-04-21T05:24:42;80.13;;;48.47;;
47349;SDS011;33088;51.982;5.872;2023-04-21T05:27:08;76.07;;;47.95;;
47349;SDS011;33088;51.982;5.872;2023-04-21T05:29:33;77.03;;;47.85;;
47349;SDS011;33088;51.982;5.872;2023-04-21T05:31:59;88.68;;;50.03;;
47349;SDS011;33088;51.982;5.872;2023-04-21T05:34:25;73.97;;;48.25;;
47349;SDS011;33088;51.982;5.872;2023-04-21T05:36:51;74.45;;;46.25;;
47349;SDS011;33088;51.982;5.872;2023-04-21T05:39:19;75.45;;;45.75;;
47349;SDS011;33088;51.982;5.872;2023-04-21T05:41:45;69.97;;;45.03;;
47349;SDS011;33088;51.982;5.872;2023-04-21T05:44:10;76.22;;;47.80;;
47349;SDS011;33088;51.982;5.872;2023-04-21T05:46:36;76.13;;;47.17;;
47349;SDS011;33088;51.982;5.872;2023-04-21T05:49:02;73.72;;;46.45;;
47349;SDS011;33088;51.982;5.872;2023-04-21T05:51:27;70.50;;;44.88;;
47349;SDS011;33088;51.982;5.872;2023-04-21T05:53:53;72.80;;;45.30;;
47349;SDS011;33088;51.982;5.872;2023-04-21T05:56:20;73.35;;;45.40;;
47349;SDS011;33088;51.982;5.872;2023-04-21T05:58:46;76.80;;;47.03;;
47349;SDS011;33088;51.982;5.872;2023-04-21T06:01:11;76.60;;;44.45;;
47349;SDS011;33088;51.982;5.872;2023-04-21T06:03:37;67.78;;;43.60;;
47349;SDS011;33088;51.982;5.872;2023-04-21T06:06:03;67.30;;;42.20;;
47349;SDS011;33088;51.982;5.872;2023-04-21T06:08:33;72.13;;;44.92;;
47349;SDS011;33088;51.982;5.872;2023-04-21T06:10:58;66.85;;;42.05;;
47349;SDS011;33088;51.982;5.872;2023-04-21T06:13:24;68.32;;;41.45;;
47349;SDS011;33088;51.982;5.872;2023-04-21T06:15:53;64.13;;;43.45;;
47349;SDS011;33088;51.982;5.872;2023-04-21T06:18:18;62.97;;;42.10;;
47349;SDS011;33088;51.982;5.872;2023-04-21T06:20:50;66.97;;;42.53;;
47349;SDS011;33088;51.982;5.872;2023-04-21T06:23:20;70.63;;;42.95;;
47349;SDS011;33088;51.982;5.872;2023-04-21T06:25:46;61.40;;;40.88;;
47349;SDS011;33088;51.982;5.872;2023-04-21T06:28:25;61.50;;;40.05;;
47349;SDS011;33088;51.982;5.872;2023-04-21T06:30:53;60.25;;;39.17;;
47349;SDS011;33088;51.982;5.872;2023-04-21T06:33:19;64.68;;;41.13;;
47349;SDS011;33088;51.982;5.872;2023-04-21T06:35:44;59.67;;;39.95;;
47349;SDS011;33088;51.982;5.872;2023-04-21T06:38:10;63.03;;;41.42;;
47349;SDS011;33088;51.982;5.872;2023-04-21T06:40:35;57.15;;;37.53;;
47349;SDS011;33088;51.982;5.872;2023-04-21T06:43:01;53.30;;;37.83;;
47349;SDS011;33088;51.982;5.872;2023-04-21T06:45:27;65.03;;;40.95;;
47349;SDS011;33088;51.982;5.872;2023-04-21T06:47:52;52.80;;;37.60;;
47349;SDS011;33088;51.982;5.872;2023-04-21T06:50:18;48.70;;;34.92;;
47349;SDS011;33088;51.982;5.872;2023-04-21T06:52:44;50.75;;;35.22;;
47349;SDS011;33088;51.982;5.872;2023-04-21T06:55:09;50.05;;;34.28;;
47349;SDS011;33088;51.982;5.872;2023-04-21T06:57:35;52.92;;;36.80;;
47349;SDS011;33088;51.982;5.872;2023-04-21T07:00:03;52.67;;;36.97;;
47349;SDS011;33088;51.982;5.872;2023-04-21T07:02:29;47.60;;;34.45;;
47349;SDS011;33088;51.982;5.872;2023-04-21T07:04:55;44.75;;;33.55;;
47349;SDS011;33088;51.982;5.872;2023-04-21T07:07:21;45.88;;;33.83;;
47349;SDS011;33088;51.982;5.872;2023-04-21T07:09:47;46.00;;;34.60;;
47349;SDS011;33088;51.982;5.872;2023-04-21T07:12:12;46.88;;;35.22;;
47349;SDS011;33088;51.982;5.872;2023-04-21T07:14:38;46.60;;;34.95;;
47349;SDS011;33088;51.982;5.872;2023-04-21T07:17:07;51.22;;;35.10;;
47349;SDS011;33088;51.982;5.872;2023-04-21T07:19:32;53.78;;;35.20;;
47349;SDS011;33088;51.982;5.872;2023-04-21T07:21:58;50.65;;;34.28;;
47349;SDS011;33088;51.982;5.872;2023-04-21T07:24:24;54.50;;;34.63;;
47349;SDS011;33088;51.982;5.872;2023-04-21T07:26:49;43.15;;;32.47;;
47349;SDS011;33088;51.982;5.872;2023-04-21T07:29:15;45.15;;;33.42;;
47349;SDS011;33088;51.982;5.872;2023-04-21T07:31:41;46.47;;;33.10;;
47349;SDS011;33088;51.982;5.872;2023-04-21T07:34:06;43.45;;;31.50;;
47349;SDS011;33088;51.982;5.872;2023-04-21T07:36:32;42.38;;;32.13;;
47349;SDS011;33088;51.982;5.872;2023-04-21T07:38:57;40.97;;;30.70;;
47349;SDS011;33088;51.982;5.872;2023-04-21T07:41:23;45.67;;;32.05;;
47349;SDS011;33088;51.982;5.872;2023-04-21T07:43:49;38.60;;;30.50;;
47349;SDS011;33088;51.982;5.872;2023-04-21T07:46:15;39.05;;;29.35;;
47349;SDS011;33088;51.982;5.872;2023-04-21T07:48:40;41.20;;;30.70;;
47349;SDS011;33088;51.982;5.872;2023-04-21T07:51:06;47.83;;;33.20;;
47349;SDS011;33088;51.982;5.872;2023-04-21T07:53:32;42.75;;;31.30;;
47349;SDS011;33088;51.982;5.872;2023-04-21T07:55:57;38.88;;;29.52;;
47349;SDS011;33088;51.982;5.872;2023-04-21T07:58:23;40.78;;;29.60;;
47349;SDS011;33088;51.982;5.872;2023-04-21T08:00:49;45.13;;;33.08;;
47349;SDS011;33088;51.982;5.872;2023-04-21T08:03:15;42.95;;;32.08;;
47349;SDS011;33088;51.982;5.872;2023-04-21T08:05:41;40.60;;;30.25;;
47349;SDS011;33088;51.982;5.872;2023-04-21T08:08:06;46.10;;;30.67;;
47349;SDS011;33088;51.982;5.872;2023-04-21T08:10:32;42.95;;;30.67;;
47349;SDS011;33088;51.982;5.872;2023-04-21T08:12:59;44.97;;;31.15;;
47349;SDS011;33088;51.982;5.872;2023-04-21T08:15:25;38.00;;;28.80;;
47349;SDS011;33088;51.982;5.872;2023-04-21T08:17:50;43.05;;;30.17;;
47349;SDS011;33088;51.982;5.872;2023-04-21T08:20:16;38.60;;;28.33;;
47349;SDS011;33088;51.982;5.872;2023-04-21T08:22:42;42.45;;;30.40;;
47349;SDS011;33088;51.982;5.872;2023-04-21T08:25:07;41.92;;;30.58;;
47349;SDS011;33088;51.982;5.872;2023-04-21T08:27:36;43.15;;;30.90;;
47349;SDS011;33088;51.982;5.872;2023-04-21T08:30:03;42.63;;;30.15;;
47349;SDS011;33088;51.982;5.872;2023-04-21T08:32:29;37.65;;;29.60;;
47349;SDS011;33088;51.982;5.872;2023-04-21T08:34:55;40.47;;;29.77;;
47349;SDS011;33088;51.982;5.872;2023-04-21T08:37:20;38.67;;;28.67;;
47349;SDS011;33088;51.982;5.872;2023-04-21T08:39:47;42.42;;;28.30;;
47349;SDS011;33088;51.982;5.872;2023-04-21T08:42:15;40.35;;;30.40;;
47349;SDS011;33088;51.982;5.872;2023-04-21T08:44:42;39.92;;;29.50;;
47349;SDS011;33088;51.982;5.872;2023-04-21T08:47:11;38.38;;;27.65;;
47349;SDS011;33088;51.982;5.872;2023-04-21T08:49:39;36.85;;;28.00;;
47349;SDS011;33088;51.982;5.872;2023-04-21T08:52:06;39.47;;;28.40;;
47349;SDS011;33088;51.982;5.872;2023-04-21T08:54:33;38.63;;;27.77;;
47349;SDS011;33088;51.982;5.872;2023-04-21T08:57:03;35.38;;;26.52;;
47349;SDS011;33088;51.982;5.872;2023-04-21T08:59:29;34.97;;;27.23;;
47349;SDS011;33088;51.982;5.872;2023-04-21T09:02:07;36.45;;;28.02;;
47349;SDS011;33088;51.982;5.872;2023-04-21T09:04:43;35.50;;;26.20;;
47349;SDS011;33088;51.982;5.872;2023-04-21T09:07:31;39.47;;;26.77;;
47349;SDS011;33088;51.982;5.872;2023-04-21T09:09:58;34.83;;;25.95;;
47349;SDS011;33088;51.982;5.872;2023-04-21T09:12:24;38.42;;;29.08;;
47349;SDS011;33088;51.982;5.872;2023-04-21T09:14:51;34.15;;;28.38;;
47349;SDS011;33088;51.982;5.872;2023-04-21T09:17:21;35.53;;;26.25;;
47349;SDS011;33088;51.982;5.872;2023-04-21T09:19:52;35.95;;;26.00;;
47349;SDS011;33088;51.982;5.872;2023-04-21T09:22:18;37.25;;;26.92;;
47349;SDS011;33088;51.982;5.872;2023-04-21T09:24:47;38.25;;;27.63;;
47349;SDS011;33088;51.982;5.872;2023-04-21T09:27:16;39.88;;;28.48;;
47349;SDS011;33088;51.982;5.872;2023-04-21T09:29:45;37.45;;;28.13;;
47349;SDS011;33088;51.982;5.872;2023-04-21T09:32:17;38.58;;;28.75;;
47349;SDS011;33088;51.982;5.872;2023-04-21T09:34:44;39.80;;;27.40;;
47349;SDS011;33088;51.982;5.872;2023-04-21T09:37:11;37.28;;;29.08;;
47349;SDS011;33088;51.982;5.872;2023-04-21T09:39:38;34.75;;;26.75;;
47349;SDS011;33088;51.982;5.872;2023-04-21T09:42:05;36.55;;;25.10;;
47349;SDS011;33088;51.982;5.872;2023-04-21T09:44:34;38.17;;;27.38;;
47349;SDS011;33088;51.982;5.872;2023-04-21T09:47:02;36.10;;;27.85;;
47349;SDS011;33088;51.982;5.872;2023-04-21T09:49:29;37.72;;;27.63;;
47349;SDS011;33088;51.982;5.872;2023-04-21T09:51:57;33.08;;;27.15;;
47349;SDS011;33088;51.982;5.872;2023-04-21T09:54:31;34.20;;;27.00;;
47349;SDS011;33088;51.982;5.872;2023-04-21T09:57:02;33.50;;;26.35;;
47349;SDS011;33088;51.982;5.872;2023-04-21T09:59:35;34.30;;;26.67;;
47349;SDS011;33088;51.982;5.872;2023-04-21T10:02:03;34.33;;;25.40;;
47349;SDS011;33088;51.982;5.872;2023-04-21T10:04:30;34.92;;;26.20;;
47349;SDS011;33088;51.982;5.872;2023-04-21T10:06:57;36.10;;;27.35;;
47349;SDS011;33088;51.982;5.872;2023-04-21T10:12:10;38.10;;;25.25;;
47349;SDS011;33088;51.982;5.872;2023-04-21T10:14:37;30.42;;;25.02;;
47349;SDS011;33088;51.982;5.872;2023-04-21T10:17:07;32.95;;;25.05;;
47349;SDS011;33088;51.982;5.872;2023-04-21T10:19:34;37.13;;;26.17;;
47349;SDS011;33088;51.982;5.872;2023-04-21T10:22:07;34.50;;;26.55;;
47349;SDS011;33088;51.982;5.872;2023-04-21T10:24:42;36.08;;;24.52;;
47349;SDS011;33088;51.982;5.872;2023-04-21T10:27:11;30.48;;;24.00;;
47349;SDS011;33088;51.982;5.872;2023-04-21T10:29:56;31.48;;;24.70;;
47349;SDS011;33088;51.982;5.872;2023-04-21T10:32:38;30.50;;;23.15;;
47349;SDS011;33088;51.982;5.872;2023-04-21T10:35:09;35.88;;;24.08;;
47349;SDS011;33088;51.982;5.872;2023-04-21T10:37:40;27.83;;;22.55;;
47349;SDS011;33088;51.982;5.872;2023-04-21T10:40:07;28.17;;;22.27;;
47349;SDS011;33088;51.982;5.872;2023-04-21T10:42:55;28.48;;;21.83;;
47349;SDS011;33088;51.982;5.872;2023-04-21T10:45:23;31.38;;;22.15;;
47349;SDS011;33088;51.982;5.872;2023-04-21T10:47:51;30.73;;;23.00;;
47349;SDS011;33088;51.982;5.872;2023-04-21T10:55:39;31.85;;;23.50;;
47349;SDS011;33088;51.982;5.872;2023-04-21T10:58:09;29.23;;;22.58;;
47349;SDS011;33088;51.982;5.872;2023-04-21T11:00:35;31.63;;;22.83;;
47349;SDS011;33088;51.982;5.872;2023-04-21T11:03:05;28.77;;;22.70;;
47349;SDS011;33088;51.982;5.872;2023-04-21T11:05:35;31.15;;;22.48;;
47349;SDS011;33088;51.982;5.872;2023-04-21T11:08:12;28.08;;;22.52;;
47349;SDS011;33088;51.982;5.872;2023-04-21T11:13:09;33.22;;;24.92;;
47349;SDS011;33088;51.982;5.872;2023-04-21T11:15:35;31.05;;;22.23;;
47349;SDS011;33088;51.982;5.872;2023-04-21T11:18:01;29.40;;;23.85;;
47349;SDS011;33088;51.982;5.872;2023-04-21T11:20:27;29.02;;;23.15;;
47349;SDS011;33088;51.982;5.872;2023-04-21T11:23:02;30.52;;;24.60;;
47349;SDS011;33088;51.982;5.872;2023-04-21T11:25:27;29.67;;;22.00;;
47349;SDS011;33088;51.982;5.872;2023-04-21T11:27:54;31.45;;;22.77;;
47349;SDS011;33088;51.982;5.872;2023-04-21T11:30:21;31.90;;;24.20;;
47349;SDS011;33088;51.982;5.872;2023-04-21T11:33:00;30.60;;;23.00;;
47349;SDS011;33088;51.982;5.872;2023-04-21T11:35:30;28.33;;;22.10;;
47349;SDS011;33088;51.982;5.872;2023-04-21T11:37:55;31.30;;;20.85;;
47349;SDS011;33088;51.982;5.872;2023-04-21T11:40:21;26.90;;;21.48;;
47349;SDS011;33088;51.982;5.872;2023-04-21T11:42:47;32.28;;;24.40;;
47349;SDS011;33088;51.982;5.872;2023-04-21T11:45:16;28.90;;;21.90;;
47349;SDS011;33088;51.982;5.872;2023-04-21T11:47:43;29.15;;;22.80;;
47349;SDS011;33088;51.982;5.872;2023-04-21T11:50:09;30.10;;;22.50;;
47349;SDS011;33088;51.982;5.872;2023-04-21T11:52:38;31.55;;;21.67;;
47349;SDS011;33088;51.982;5.872;2023-04-21T11:55:12;31.02;;;23.67;;
47349;SDS011;33088;51.982;5.872;2023-04-21T11:57:43;31.73;;;22.85;;
47349;SDS011;33088;51.982;5.872;2023-04-21T12:00:10;33.00;;;22.67;;
47349;SDS011;33088;51.982;5.872;2023-04-21T12:02:39;32.75;;;22.88;;
47349;SDS011;33088;51.982;5.872;2023-04-21T12:05:06;31.40;;;21.52;;
47349;SDS011;33088;51.982;5.872;2023-04-21T12:07:34;35.90;;;25.00;;
47349;SDS011;33088;51.982;5.872;2023-04-21T12:10:01;30.45;;;22.45;;
47349;SDS011;33088;51.982;5.872;2023-04-21T12:12:36;28.08;;;20.77;;
47349;SDS011;33088;51.982;5.872;2023-04-21T12:15:09;33.53;;;23.25;;
47349;SDS011;33088;51.982;5.872;2023-04-21T12:17:51;36.38;;;22.17;;
47349;SDS011;33088;51.982;5.872;2023-04-21T12:20:19;31.75;;;21.30;;
47349;SDS011;33088;51.982;5.872;2023-04-21T12:22:48;28.63;;;21.55;;
47349;SDS011;33088;51.982;5.872;2023-04-21T12:25:14;29.70;;;23.50;;
47349;SDS011;33088;51.982;5.872;2023-04-21T12:27:47;34.25;;;23.08;;
47349;SDS011;33088;51.982;5.872;2023-04-21T12:30:17;30.15;;;23.88;;
47349;SDS011;33088;51.982;5.872;2023-04-21T12:32:43;31.02;;;22.75;;
47349;SDS011;33088;51.982;5.872;2023-04-21T12:35:09;30.23;;;21.92;;
47349;SDS011;33088;51.982;5.872;2023-04-21T12:37:35;32.22;;;23.58;;
47349;SDS011;33088;51.982;5.872;2023-04-21T12:40:01;29.30;;;23.00;;
47349;SDS011;33088;51.982;5.872;2023-04-21T12:42:27;30.13;;;21.17;;
47349;SDS011;33088;51.982;5.872;2023-04-21T12:44:53;34.45;;;23.40;;
47349;SDS011;33088;51.982;5.872;2023-04-21T12:47:19;30.63;;;23.33;;
47349;SDS011;33088;51.982;5.872;2023-04-21T12:49:44;28.67;;;23.75;;
47349;SDS011;33088;51.982;5.872;2023-04-21T12:52:10;32.97;;;22.38;;
47349;SDS011;33088;51.982;5.872;2023-04-21T12:54:36;31.02;;;23.65;;
47349;SDS011;33088;51.982;5.872;2023-04-21T12:57:01;33.55;;;23.50;;
47349;SDS011;33088;51.982;5.872;2023-04-21T12:59:27;32.28;;;23.05;;
47349;SDS011;33088;51.982;5.872;2023-04-21T13:01:53;28.45;;;20.95;;
47349;SDS011;33088;51.982;5.872;2023-04-21T13:04:19;31.70;;;22.10;;
47349;SDS011;33088;51.982;5.872;2023-04-21T13:06:45;31.17;;;21.23;;
47349;SDS011;33088;51.982;5.872;2023-04-21T13:09:11;30.80;;;20.83;;
47349;SDS011;33088;51.982;5.872;2023-04-21T13:11:36;31.10;;;20.95;;
47349;SDS011;33088;51.982;5.872;2023-04-21T13:14:02;28.98;;;21.30;;
47349;SDS011;33088;51.982;5.872;2023-04-21T13:16:28;25.33;;;19.20;;
47349;SDS011;33088;51.982;5.872;2023-04-21T13:18:54;23.92;;;18.35;;
47349;SDS011;33088;51.982;5.872;2023-04-21T13:21:20;25.23;;;18.40;;
47349;SDS011;33088;51.982;5.872;2023-04-21T13:23:46;25.50;;;18.35;;
47349;SDS011;33088;51.982;5.872;2023-04-21T13:26:17;21.65;;;16.23;;
47349;SDS011;33088;51.982;5.872;2023-04-21T13:28:43;26.77;;;18.77;;
47349;SDS011;33088;51.982;5.872;2023-04-21T13:31:09;22.20;;;17.55;;
47349;SDS011;33088;51.982;5.872;2023-04-21T13:33:34;22.73;;;16.38;;
47349;SDS011;33088;51.982;5.872;2023-04-21T13:36:01;23.08;;;16.02;;
47349;SDS011;33088;51.982;5.872;2023-04-21T13:38:27;22.52;;;16.67;;
47349;SDS011;33088;51.982;5.872;2023-04-21T13:40:53;22.83;;;18.50;;
47349;SDS011;33088;51.982;5.872;2023-04-21T13:43:18;23.40;;;16.85;;
47349;SDS011;33088;51.982;5.872;2023-04-21T13:45:44;22.75;;;18.55;;
47349;SDS011;33088;51.982;5.872;2023-04-21T13:48:12;24.65;;;17.15;;
47349;SDS011;33088;51.982;5.872;2023-04-21T13:50:37;22.10;;;16.08;;
47349;SDS011;33088;51.982;5.872;2023-04-21T13:53:03;21.40;;;16.88;;
47349;SDS011;33088;51.982;5.872;2023-04-21T13:55:29;26.30;;;18.00;;
47349;SDS011;33088;51.982;5.872;2023-04-21T13:57:55;21.73;;;17.00;;
47349;SDS011;33088;51.982;5.872;2023-04-21T14:00:22;24.05;;;18.38;;
47349;SDS011;33088;51.982;5.872;2023-04-21T14:02:48;23.40;;;18.30;;
47349;SDS011;33088;51.982;5.872;2023-04-21T14:05:13;25.23;;;18.02;;
47349;SDS011;33088;51.982;5.872;2023-04-21T14:07:40;26.60;;;19.15;;
47349;SDS011;33088;51.982;5.872;2023-04-21T14:10:07;25.38;;;18.08;;
47349;SDS011;33088;51.982;5.872;2023-04-21T14:12:33;22.60;;;17.50;;
47349;SDS011;33088;51.982;5.872;2023-04-21T14:14:58;23.48;;;18.40;;
47349;SDS011;33088;51.982;5.872;2023-04-21T14:17:24;24.25;;;17.92;;
47349;SDS011;33088;51.982;5.872;2023-04-21T14:19:50;21.73;;;17.75;;
47349;SDS011;33088;51.982;5.872;2023-04-21T14:22:16;24.50;;;18.50;;
47349;SDS011;33088;51.982;5.872;2023-04-21T14:24:42;25.40;;;18.10;;
47349;SDS011;33088;51.982;5.872;2023-04-21T14:27:08;23.33;;;17.88;;
47349;SDS011;33088;51.982;5.872;2023-04-21T14:29:34;25.75;;;19.02;;